createdAt,value
2022-12-09T00:01:18.818Z,8.97
2022-12-09T00:03:46.716Z,8.50
2022-12-09T00:06:22.126Z,9.03
2022-12-09T00:08:50.073Z,9.03
2022-12-09T00:11:18.221Z,9.57
2022-12-09T00:13:49.234Z,9.00
2022-12-09T00:16:16.685Z,9.43
2022-12-09T00:18:44.315Z,8.90
2022-12-09T00:21:25.785Z,9.20
2022-12-09T00:23:53.848Z,9.30
2022-12-09T00:26:22.340Z,8.63
2022-12-09T00:28:50.066Z,9.00
2022-12-09T00:31:37.875Z,8.43
2022-12-09T00:34:06.988Z,9.13
2022-12-09T00:36:35.191Z,8.80
2022-12-09T00:39:02.689Z,9.00
2022-12-09T00:41:30.558Z,9.73
2022-12-09T00:43:58.435Z,8.93
2022-12-09T00:46:26.011Z,9.30
2022-12-09T00:48:53.747Z,8.77
2022-12-09T00:51:22.394Z,8.50
2022-12-09T00:53:54.826Z,9.33
2022-12-09T00:56:23.541Z,8.73
2022-12-09T00:58:51.020Z,8.80
2022-12-09T01:01:19.717Z,9.03
2022-12-09T01:03:47.738Z,8.70
2022-12-09T01:06:17.605Z,8.67
2022-12-09T01:08:45.904Z,8.93
2022-12-09T01:11:17.342Z,8.43
2022-12-09T01:13:46.519Z,8.27
2022-12-09T01:16:15.213Z,9.00
2022-12-09T01:18:42.809Z,8.53
2022-12-09T01:21:10.227Z,8.93
2022-12-09T01:23:37.861Z,8.63
2022-12-09T01:26:06.783Z,8.83
2022-12-09T01:28:35.487Z,7.80
2022-12-09T01:31:13.383Z,7.73
2022-12-09T01:33:41.094Z,8.57
2022-12-09T01:36:10.023Z,9.00
2022-12-09T01:38:38.045Z,8.53
2022-12-09T01:41:06.603Z,8.83
2022-12-09T01:43:34.134Z,8.77
2022-12-09T01:46:02.040Z,8.80
2022-12-09T01:48:39.000Z,8.90
2022-12-09T01:51:13.916Z,8.53
2022-12-09T01:53:43.416Z,8.10
2022-12-09T01:56:16.999Z,8.13
2022-12-09T01:58:45.290Z,7.90
2022-12-09T02:01:12.923Z,8.47
2022-12-09T02:03:40.783Z,8.20
2022-12-09T02:06:08.749Z,8.77
2022-12-09T02:08:36.638Z,8.50
2022-12-09T02:11:14.277Z,8.30
2022-12-09T02:13:52.071Z,8.13
2022-12-09T02:16:22.044Z,8.33
2022-12-09T02:18:52.864Z,8.60
2022-12-09T02:21:27.209Z,7.93
2022-12-09T02:24:19.594Z,8.63
2022-12-09T02:26:58.112Z,9.10
2022-12-09T02:29:32.492Z,9.33
2022-12-09T02:32:09.712Z,8.37
2022-12-09T02:34:41.642Z,9.07
2022-12-09T02:37:18.315Z,8.27
2022-12-09T02:40:13.119Z,8.70
2022-12-09T02:42:43.681Z,8.80
2022-12-09T02:45:12.368Z,8.57
2022-12-09T02:47:45.470Z,8.23
2022-12-09T02:50:15.497Z,8.53
2022-12-09T02:52:43.419Z,22.13
2022-12-09T02:55:11.204Z,8.77
2022-12-09T02:57:41.176Z,9.40
2022-12-09T03:00:14.840Z,8.10
2022-12-09T03:02:44.930Z,8.53
2022-12-09T03:05:37.719Z,8.03
2022-12-09T03:08:14.586Z,8.20
2022-12-09T03:10:57.809Z,8.87
2022-12-09T03:13:44.027Z,8.63
2022-12-09T03:16:15.635Z,8.40
2022-12-09T03:18:45.876Z,8.50
2022-12-09T03:21:15.113Z,8.77
2022-12-09T03:23:44.498Z,9.27
2022-12-09T03:26:13.207Z,9.03
2022-12-09T03:28:46.441Z,8.97
2022-12-09T03:31:15.737Z,9.53
2022-12-09T03:33:45.587Z,8.47
2022-12-09T03:36:14.834Z,8.93
2022-12-09T03:38:43.314Z,9.20
2022-12-09T03:41:25.686Z,9.87
2022-12-09T03:44:14.095Z,9.43
2022-12-09T03:46:41.838Z,9.53
2022-12-09T03:49:09.826Z,9.60
2022-12-09T03:51:39.250Z,11.03
2022-12-09T03:54:27.030Z,10.40
2022-12-09T03:56:57.735Z,10.80
2022-12-09T03:59:26.258Z,9.63
2022-12-09T04:01:53.968Z,9.67
2022-12-09T04:04:21.828Z,10.10
2022-12-09T04:06:54.451Z,10.13
2022-12-09T04:09:22.387Z,10.57
2022-12-09T04:11:49.916Z,10.30
2022-12-09T04:14:17.763Z,9.87
2022-12-09T04:16:46.085Z,10.20
2022-12-09T04:19:13.928Z,10.70
2022-12-09T04:21:41.834Z,11.77
2022-12-09T04:34:49.028Z,10.43
2022-12-09T04:37:16.712Z,10.60
2022-12-09T04:39:44.228Z,11.00
2022-12-09T04:42:11.730Z,11.13
2022-12-09T04:44:39.298Z,10.07
2022-12-09T04:47:07.072Z,10.23
2022-12-09T04:49:34.519Z,11.03
2022-12-09T04:52:01.891Z,10.87
2022-12-09T04:54:29.505Z,10.30
2022-12-09T04:56:57.057Z,10.37
2022-12-09T04:59:24.552Z,9.90
2022-12-09T05:01:52.253Z,10.77
2022-12-09T05:04:19.864Z,11.67
2022-12-09T05:06:47.593Z,11.03
2022-12-09T05:09:15.967Z,10.53
2022-12-09T05:11:43.746Z,10.97
2022-12-09T05:14:11.362Z,10.37
2022-12-09T05:16:39.204Z,11.00
2022-12-09T05:19:07.094Z,10.87
2022-12-09T05:21:34.672Z,10.40
2022-12-09T05:24:05.169Z,10.47
2022-12-09T05:26:33.394Z,10.13
2022-12-09T05:29:00.874Z,11.90
2022-12-09T05:31:28.335Z,10.63
2022-12-09T05:33:56.265Z,11.33
2022-12-09T05:36:25.404Z,10.50
2022-12-09T05:38:53.368Z,10.77
2022-12-09T05:41:21.092Z,10.33
2022-12-09T05:43:48.951Z,11.93
2022-12-09T05:46:16.752Z,11.57
2022-12-09T05:48:44.495Z,11.50
2022-12-09T05:51:26.298Z,10.63
2022-12-09T05:53:54.190Z,10.90
2022-12-09T05:56:22.648Z,10.77
2022-12-09T05:58:50.982Z,10.57
2022-12-09T06:01:18.651Z,10.10
2022-12-09T06:03:50.260Z,11.37
2022-12-09T06:06:19.217Z,10.77
2022-12-09T06:08:47.464Z,11.07
2022-12-09T06:11:19.788Z,11.83
2022-12-09T06:13:48.432Z,11.20
2022-12-09T06:16:19.033Z,11.80
2022-12-09T06:18:47.590Z,11.50
2022-12-09T06:21:15.781Z,12.13
2022-12-09T06:23:43.780Z,11.33
2022-12-09T06:26:19.075Z,11.53
2022-12-09T06:28:46.901Z,11.50
2022-12-09T06:31:14.903Z,11.10
2022-12-09T06:33:59.556Z,11.00
2022-12-09T06:36:29.080Z,10.63
2022-12-09T06:38:58.800Z,10.83
2022-12-09T06:41:28.341Z,10.17
2022-12-09T06:43:57.864Z,10.47
2022-12-09T06:46:26.110Z,9.93
2022-12-09T06:48:54.380Z,10.83
2022-12-09T06:51:23.549Z,11.40
2022-12-09T06:53:51.352Z,11.53
2022-12-09T06:56:19.084Z,11.20
2022-12-09T06:58:47.477Z,10.37
2022-12-09T07:01:22.755Z,10.93
2022-12-09T07:03:52.408Z,10.67
2022-12-09T07:06:26.074Z,10.63
2022-12-09T07:08:54.076Z,11.43
2022-12-09T07:11:21.968Z,11.43
2022-12-09T07:13:49.749Z,11.00
2022-12-09T07:16:17.829Z,10.63
2022-12-09T07:18:45.526Z,10.20
2022-12-09T07:21:17.448Z,10.27
2022-12-09T07:23:45.464Z,10.23
2022-12-09T07:26:13.276Z,10.30
2022-12-09T07:28:42.685Z,10.07
2022-12-09T07:31:27.529Z,9.87
2022-12-09T07:33:56.479Z,9.47
2022-12-09T07:36:25.266Z,10.40
2022-12-09T07:38:56.506Z,10.87
2022-12-09T07:41:24.333Z,9.53
2022-12-09T07:43:52.320Z,10.93
2022-12-09T07:46:20.794Z,10.23
2022-12-09T07:48:49.388Z,10.70
2022-12-09T07:51:17.817Z,9.63
2022-12-09T07:53:46.040Z,11.50
2022-12-09T07:56:14.941Z,13.53
2022-12-09T07:58:43.092Z,9.60
2022-12-09T08:01:12.069Z,9.90
2022-12-09T08:03:40.455Z,10.93
2022-12-09T08:06:08.390Z,9.63
2022-12-09T08:08:36.015Z,9.23
2022-12-09T08:11:14.033Z,9.43
2022-12-09T08:13:45.085Z,8.67
2022-12-09T08:16:14.214Z,9.33
2022-12-09T08:18:43.015Z,8.67
2022-12-09T08:21:11.928Z,8.30
2022-12-09T08:23:40.226Z,8.40
2022-12-09T08:26:08.337Z,8.83
2022-12-09T08:28:35.869Z,8.47
2022-12-09T08:31:08.175Z,9.63
2022-12-09T08:33:36.365Z,8.87
2022-12-09T08:36:04.736Z,8.90
2022-12-09T08:38:32.707Z,9.57
2022-12-09T08:41:00.596Z,8.00
2022-12-09T08:43:28.407Z,7.70
2022-12-09T08:45:56.091Z,8.07
2022-12-09T08:48:23.833Z,9.90
2022-12-09T08:50:51.731Z,8.67
2022-12-09T08:53:19.217Z,9.23
2022-12-09T08:55:46.960Z,7.90
2022-12-09T08:58:14.803Z,7.80
2022-12-09T09:00:42.610Z,7.40
2022-12-09T09:03:10.541Z,8.20
2022-12-09T09:05:38.264Z,7.50
2022-12-09T09:08:05.908Z,7.77
2022-12-09T09:10:34.219Z,8.07
2022-12-09T09:13:01.760Z,8.23
2022-12-09T09:15:29.514Z,7.53
2022-12-09T09:17:57.385Z,8.33
2022-12-09T09:20:24.904Z,7.53
2022-12-09T09:22:55.152Z,7.30
2022-12-09T09:25:25.576Z,8.93
2022-12-09T09:27:53.109Z,9.87
2022-12-09T09:30:23.622Z,8.00
2022-12-09T09:32:51.969Z,8.27
2022-12-09T09:35:19.762Z,8.23
2022-12-09T09:37:47.725Z,7.70
2022-12-09T09:40:15.824Z,7.43
2022-12-09T09:42:48.503Z,6.87
2022-12-09T09:45:18.542Z,7.13
2022-12-09T09:47:49.469Z,6.93
2022-12-09T09:50:29.297Z,6.93
2022-12-09T09:52:57.620Z,6.57
2022-12-09T09:55:35.410Z,7.50
2022-12-09T09:58:06.014Z,6.27
2022-12-09T10:00:42.490Z,6.13
2022-12-09T10:03:13.031Z,6.17
2022-12-09T10:05:52.930Z,6.03
2022-12-09T10:08:20.920Z,5.10
2022-12-09T10:11:00.860Z,6.13
2022-12-09T10:13:28.627Z,5.97
2022-12-09T10:16:08.239Z,5.43
2022-12-09T10:18:54.520Z,5.53
2022-12-09T10:21:23.298Z,5.50
2022-12-09T10:23:51.159Z,5.80
2022-12-09T10:26:27.419Z,5.57
2022-12-09T10:28:58.693Z,6.13
2022-12-09T10:31:28.281Z,5.57
2022-12-09T10:33:56.553Z,5.10
2022-12-09T10:36:32.195Z,5.13
2022-12-09T10:39:03.140Z,5.53
2022-12-09T10:41:55.934Z,5.00
2022-12-09T10:44:27.535Z,5.37
2022-12-09T10:47:04.407Z,6.87
2022-12-09T10:49:32.403Z,6.17
2022-12-09T10:52:00.868Z,5.63
2022-12-09T10:54:28.461Z,5.57
2022-12-09T10:57:02.186Z,5.37
2022-12-09T10:59:31.419Z,5.57
2022-12-09T11:02:19.140Z,5.87
2022-12-09T11:04:47.203Z,5.90
2022-12-09T11:07:18.157Z,5.23
2022-12-09T11:09:45.788Z,5.70
2022-12-09T11:12:31.996Z,5.43
2022-12-09T11:15:27.909Z,7.03
2022-12-09T11:18:07.174Z,5.73
2022-12-09T11:20:36.574Z,5.50
2022-12-09T11:23:16.107Z,5.60
2022-12-09T11:26:01.873Z,4.73
2022-12-09T11:28:31.096Z,5.00
2022-12-09T11:33:54.147Z,4.80
2022-12-09T11:36:29.872Z,4.83
2022-12-09T11:39:28.116Z,5.37
2022-12-09T11:42:18.542Z,5.07
2022-12-09T11:44:49.618Z,5.37
2022-12-09T11:48:13.600Z,5.10
2022-12-09T11:50:26.097Z,4.37
2022-12-09T11:53:08.823Z,4.90
2022-12-09T11:55:38.482Z,4.77
2022-12-09T11:58:07.695Z,4.67
2022-12-09T12:00:38.109Z,4.60
2022-12-09T12:03:13.040Z,5.07
2022-12-09T12:05:42.682Z,4.60
2022-12-09T12:08:19.275Z,4.87
2022-12-09T12:10:48.617Z,5.27
2022-12-09T12:13:25.038Z,5.37
2022-12-09T12:16:06.805Z,4.80
2022-12-09T12:18:38.948Z,5.30
2022-12-09T12:21:19.132Z,4.60
2022-12-09T12:23:46.408Z,4.47
2022-12-09T12:26:24.536Z,5.20
2022-12-09T12:29:07.340Z,4.90
2022-12-09T12:31:44.110Z,5.03
2022-12-09T12:34:27.715Z,4.77
2022-12-09T12:37:07.056Z,5.37
2022-12-09T12:39:53.164Z,4.80
2022-12-09T12:42:39.078Z,4.90
2022-12-09T12:45:37.529Z,4.90
2022-12-09T12:48:08.983Z,4.90
2022-12-09T12:50:42.294Z,5.30
2022-12-09T12:53:21.831Z,5.43
2022-12-09T12:55:58.296Z,5.27
2022-12-09T12:58:25.647Z,5.20
2022-12-09T13:00:53.072Z,5.70
2022-12-09T13:03:28.509Z,5.27
2022-12-09T13:05:57.484Z,5.53
2022-12-09T13:08:34.141Z,5.17
2022-12-09T13:11:03.783Z,5.23
2022-12-09T13:13:33.231Z,5.70
2022-12-09T13:16:19.103Z,5.27
2022-12-09T13:18:46.931Z,4.87
2022-12-09T13:21:14.593Z,5.27
2022-12-09T13:23:44.968Z,5.27
2022-12-09T13:26:28.217Z,5.27
2022-12-09T13:28:58.314Z,13.40
2022-12-09T13:31:35.913Z,5.93
2022-12-09T13:34:03.316Z,5.13
2022-12-09T13:36:36.089Z,5.60
2022-12-09T13:39:04.395Z,5.13
2022-12-09T13:41:51.622Z,5.60
2022-12-09T13:44:19.151Z,6.50
2022-12-09T13:46:46.513Z,5.77
2022-12-09T13:49:21.042Z,5.63
2022-12-09T13:51:49.746Z,5.90
2022-12-09T13:54:17.880Z,6.80
2022-12-09T13:56:45.360Z,7.17
2022-12-09T13:59:31.350Z,6.13
2022-12-09T14:02:21.446Z,6.07
2022-12-09T14:05:00.576Z,8.03
2022-12-09T14:07:43.093Z,7.97
2022-12-09T14:10:29.279Z,6.47
2022-12-09T14:12:57.307Z,6.27
2022-12-09T14:15:24.667Z,6.70
2022-12-09T14:17:52.045Z,6.50
2022-12-09T14:20:19.453Z,6.03
2022-12-09T14:23:05.673Z,5.50
2022-12-09T14:25:35.968Z,5.17
2022-12-09T14:28:24.378Z,5.90
2022-12-09T14:30:56.041Z,6.13
2022-12-09T14:33:25.605Z,5.23
2022-12-09T14:35:57.177Z,6.00
2022-12-09T14:38:30.433Z,5.37
2022-12-09T14:41:04.043Z,5.27
2022-12-09T14:43:54.555Z,5.40
2022-12-09T14:46:23.946Z,4.93
2022-12-09T14:49:11.779Z,5.27
2022-12-09T14:51:50.195Z,5.33
2022-12-09T14:54:40.590Z,5.17
2022-12-09T14:57:17.530Z,5.60
2022-12-09T14:59:49.320Z,5.17
2022-12-09T15:02:24.519Z,5.13
2022-12-09T15:04:52.940Z,5.40
2022-12-09T15:07:25.073Z,5.43
2022-12-09T15:09:52.535Z,5.43
2022-12-09T15:12:21.613Z,5.00
2022-12-09T15:14:51.937Z,5.03
2022-12-09T15:17:25.496Z,5.73
2022-12-09T15:20:01.404Z,5.70
2022-12-09T15:22:32.103Z,5.97
2022-12-09T15:24:59.904Z,6.20
2022-12-09T15:27:27.385Z,5.53
2022-12-09T15:29:55.316Z,6.17
2022-12-09T15:32:27.291Z,5.83
2022-12-09T15:34:54.830Z,5.53
2022-12-09T15:37:29.324Z,6.40
2022-12-09T15:40:03.260Z,5.93
2022-12-09T15:42:32.216Z,6.07
2022-12-09T15:44:59.606Z,4.60
2022-12-09T15:47:41.035Z,6.10
2022-12-09T15:50:18.079Z,5.40
2022-12-09T15:53:09.059Z,5.20
2022-12-09T15:55:50.658Z,5.97
2022-12-09T15:58:26.855Z,6.13
2022-12-09T16:00:54.739Z,6.23
2022-12-09T16:03:26.939Z,6.67
2022-12-09T16:05:55.709Z,5.77
2022-12-09T16:08:24.317Z,6.57
2022-12-09T16:10:53.306Z,6.63
2022-12-09T16:13:21.443Z,6.17
2022-12-09T16:15:56.537Z,5.97
2022-12-09T16:18:28.299Z,6.50
2022-12-09T16:20:58.758Z,6.13
2022-12-09T16:23:26.446Z,6.87
2022-12-09T16:25:59.357Z,6.17
2022-12-09T16:28:31.592Z,6.27
2022-12-09T16:31:00.969Z,5.57
2022-12-09T16:33:29.283Z,5.67
2022-12-09T16:35:58.176Z,6.20
2022-12-09T16:38:28.734Z,6.77
2022-12-09T16:40:56.002Z,6.00
2022-12-09T16:43:24.684Z,6.53
2022-12-09T16:45:53.288Z,6.17
2022-12-09T16:48:21.620Z,6.37
2022-12-09T16:50:50.321Z,6.33
2022-12-09T16:53:19.443Z,6.50
2022-12-09T16:55:51.314Z,5.77
2022-12-09T16:58:18.733Z,6.70
2022-12-09T17:00:46.917Z,6.47
2022-12-09T17:03:43.593Z,7.13
2022-12-09T17:06:14.362Z,5.63
2022-12-09T17:08:41.786Z,6.40
2022-12-09T17:11:09.491Z,6.63
2022-12-09T17:13:36.935Z,6.20
2022-12-09T17:16:05.552Z,6.90
2022-12-09T17:18:33.263Z,6.10
2022-12-09T17:21:07.531Z,5.93
2022-12-09T17:23:39.714Z,6.10
2022-12-09T17:26:09.244Z,5.63
2022-12-09T17:28:37.283Z,7.00
2022-12-09T17:31:08.523Z,6.77
2022-12-09T17:33:35.970Z,6.23
2022-12-09T17:36:03.374Z,5.87
2022-12-09T17:38:30.756Z,6.10
2022-12-09T17:40:58.213Z,6.13
2022-12-09T17:43:25.528Z,6.37
2022-12-09T17:45:52.936Z,6.03
2022-12-09T17:48:20.403Z,6.67
2022-12-09T17:50:47.790Z,6.57
2022-12-09T17:53:15.071Z,6.37
2022-12-09T17:55:42.467Z,6.40
2022-12-09T17:58:09.857Z,5.80
2022-12-09T18:00:39.647Z,5.53
2022-12-09T18:03:17.871Z,6.17
2022-12-09T18:05:49.762Z,6.10
2022-12-09T18:08:18.189Z,7.23
2022-12-09T18:10:45.582Z,6.00
2022-12-09T18:13:12.923Z,6.20
2022-12-09T18:15:40.259Z,5.87
2022-12-09T18:18:07.666Z,6.23
2022-12-09T18:20:37.662Z,6.07
2022-12-09T18:23:05.196Z,6.60
2022-12-09T18:25:32.499Z,6.07
2022-12-09T18:27:59.841Z,6.47
2022-12-09T18:30:27.180Z,6.20
2022-12-09T18:32:54.525Z,6.07
2022-12-09T18:35:21.916Z,5.90
2022-12-09T18:37:49.212Z,5.70
2022-12-09T18:40:21.208Z,5.83
2022-12-09T18:42:49.204Z,5.47
2022-12-09T18:45:17.150Z,5.90
2022-12-09T18:47:44.580Z,5.93
2022-12-09T18:50:11.929Z,5.80
2022-12-09T18:52:40.942Z,5.80
2022-12-09T18:55:08.553Z,5.63
2022-12-09T18:57:36.014Z,6.10
2022-12-09T19:00:03.605Z,6.03
2022-12-09T19:02:31.009Z,6.20
2022-12-09T19:04:58.486Z,5.93
2022-12-09T19:07:31.994Z,5.40
2022-12-09T19:09:59.726Z,6.33
2022-12-09T19:12:46.419Z,5.83
2022-12-09T19:15:14.634Z,5.50
2022-12-09T19:17:42.693Z,6.97
2022-12-09T19:20:10.683Z,6.00
2022-12-09T19:22:38.103Z,6.23
2022-12-09T19:25:06.434Z,5.90
2022-12-09T19:27:33.829Z,6.40
2022-12-09T19:30:01.204Z,6.80
2022-12-09T19:32:52.348Z,6.40
2022-12-09T19:35:16.027Z,6.80
2022-12-09T19:37:43.399Z,6.73
2022-12-09T19:40:11.198Z,6.27
2022-12-09T19:42:39.773Z,6.50
2022-12-09T19:45:12.162Z,6.23
2022-12-09T19:47:41.433Z,7.13
2022-12-09T19:50:09.579Z,6.80
2022-12-09T19:52:37.183Z,6.53
2022-12-09T19:55:04.722Z,7.40
2022-12-09T19:57:32.103Z,7.43
2022-12-09T19:59:59.530Z,6.87
2022-12-09T20:02:27.012Z,7.37
2022-12-09T20:04:54.381Z,8.37
2022-12-09T20:07:21.742Z,7.83
2022-12-09T20:09:49.317Z,7.60
2022-12-09T20:12:16.706Z,6.33
2022-12-09T20:14:44.194Z,7.93
2022-12-09T20:17:11.739Z,7.70
2022-12-09T20:19:39.095Z,6.83
2022-12-09T20:22:06.593Z,6.77
2022-12-09T20:24:34.211Z,7.43
2022-12-09T20:27:01.640Z,7.77
2022-12-09T20:29:33.955Z,6.57
2022-12-09T20:32:04.697Z,7.37
2022-12-09T20:34:32.142Z,7.80
2022-12-09T20:36:59.694Z,7.40
2022-12-09T20:39:27.088Z,8.13
2022-12-09T20:41:54.477Z,7.27
2022-12-09T20:44:21.887Z,8.40
2022-12-09T20:46:50.269Z,7.33
2022-12-09T20:49:19.870Z,7.40
2022-12-09T20:51:48.703Z,8.37
2022-12-09T20:54:16.383Z,8.63
2022-12-09T20:56:43.804Z,7.70
2022-12-09T20:59:13.602Z,7.23
2022-12-09T21:01:41.785Z,8.00
2022-12-09T21:04:09.225Z,8.67
2022-12-09T21:06:37.676Z,8.10
2022-12-09T21:09:06.270Z,8.77
2022-12-09T21:11:34.013Z,8.67
2022-12-09T21:14:02.487Z,9.10
2022-12-09T21:16:33.433Z,9.27
2022-12-09T21:19:05.750Z,8.60
2022-12-09T21:21:34.396Z,8.47
2022-12-09T21:24:01.977Z,9.03
2022-12-09T21:26:29.835Z,9.20
2022-12-09T21:28:57.281Z,8.93
2022-12-09T21:31:26.131Z,8.50
2022-12-09T21:33:54.590Z,9.33
2022-12-09T21:36:23.510Z,9.40
2022-12-09T21:38:51.470Z,9.13
2022-12-09T21:41:20.787Z,9.07
2022-12-09T21:43:48.395Z,9.40
2022-12-09T21:46:18.867Z,9.43
2022-12-09T21:48:51.762Z,9.13
2022-12-09T21:51:20.142Z,9.73
2022-12-09T21:53:47.621Z,9.83
2022-12-09T21:56:19.472Z,8.57
2022-12-09T21:58:47.559Z,9.40
2022-12-09T22:01:14.942Z,10.07
2022-12-09T22:03:42.550Z,9.30
2022-12-09T22:06:10.851Z,8.93
2022-12-09T22:08:39.460Z,9.83
2022-12-09T22:11:11.014Z,9.47
2022-12-09T22:13:39.801Z,8.60
2022-12-09T22:16:28.344Z,9.10
2022-12-09T22:18:57.241Z,8.67
2022-12-09T22:21:26.777Z,8.40
2022-12-09T22:23:55.263Z,8.97
2022-12-09T22:26:23.442Z,8.93
2022-12-09T22:28:51.222Z,8.60
2022-12-09T22:31:28.417Z,9.37
2022-12-09T22:33:57.200Z,19.53
2022-12-09T22:36:24.676Z,9.97
2022-12-09T22:38:52.053Z,10.43
2022-12-09T22:41:21.069Z,10.17
2022-12-09T22:43:49.953Z,9.30
2022-12-09T22:46:21.965Z,10.00
2022-12-09T22:48:50.022Z,9.50
2022-12-09T22:51:27.852Z,9.17
2022-12-09T22:53:56.403Z,10.00
2022-12-09T22:56:24.893Z,8.80
2022-12-09T22:58:52.413Z,9.63
2022-12-09T23:01:25.886Z,9.00
2022-12-09T23:03:54.390Z,8.80
2022-12-09T23:06:21.900Z,9.03
2022-12-09T23:08:49.229Z,8.93
2022-12-09T23:11:21.098Z,9.53
2022-12-09T23:13:48.737Z,8.73
2022-12-09T23:16:18.013Z,9.77
2022-12-09T23:18:45.699Z,8.63
2022-12-09T23:21:17.537Z,9.30
2022-12-09T23:23:44.932Z,9.17
2022-12-09T23:26:13.684Z,9.00
2022-12-09T23:28:42.201Z,8.67
2022-12-09T23:31:11.076Z,8.40
2022-12-09T23:33:39.387Z,8.90
2022-12-09T23:36:17.321Z,9.80
2022-12-09T23:38:44.944Z,8.07
2022-12-09T23:41:12.790Z,8.50
2022-12-09T23:43:40.283Z,8.97
2022-12-09T23:46:15.195Z,9.43
2022-12-09T23:48:43.557Z,9.30
2022-12-09T23:51:18.131Z,8.90
2022-12-09T23:53:46.470Z,8.53
2022-12-09T23:56:23.481Z,8.93
2022-12-09T23:58:55.359Z,8.80
